createdAt,value
2022-09-21T00:01:39.972Z,100950.50
2022-09-21T00:06:42.629Z,100948.09
2022-09-21T00:11:45.286Z,100947.34
2022-09-21T00:16:49.446Z,100948.44
2022-09-21T00:21:55.404Z,100956.84
2022-09-21T00:26:57.982Z,100957.88
2022-09-21T00:32:02.636Z,100956.38
2022-09-21T00:37:05.406Z,100959.25
2022-09-21T00:42:11.234Z,100965.81
2022-09-21T00:47:17.283Z,100965.19
2022-09-21T00:52:21.963Z,100960.94
2022-09-21T00:57:27.661Z,100966.63
2022-09-21T01:02:31.661Z,100961.53
2022-09-21T01:07:38.057Z,100959.03
2022-09-21T01:12:56.444Z,100971.88
2022-09-21T01:18:12.105Z,100978.41
2022-09-21T01:23:50.082Z,100978.59
2022-09-21T01:29:21.055Z,100992.28
2022-09-21T01:34:29.840Z,100990.75
2022-09-21T01:39:35.863Z,100989.09
2022-09-21T01:44:41.423Z,100997.31
2022-09-21T01:49:48.332Z,100989.50
2022-09-21T01:54:55.233Z,100985.19
2022-09-21T02:00:01.281Z,100987.19
2022-09-21T02:05:17.139Z,100989.13
2022-09-21T02:10:24.621Z,100984.78
2022-09-21T02:15:37.350Z,100990.38
2022-09-21T02:20:46.396Z,100987.75
2022-09-21T02:25:55.351Z,100999.63
2022-09-21T02:31:13.826Z,101001.63
2022-09-21T02:36:23.704Z,100996.44
2022-09-21T02:41:31.971Z,101001.06
2022-09-21T02:46:42.536Z,100999.44
2022-09-21T02:51:48.910Z,101004.03
2022-09-21T02:56:52.729Z,101000.56
2022-09-21T03:01:56.882Z,101004.34
2022-09-21T03:06:59.825Z,101007.09
2022-09-21T03:12:02.912Z,101020.69
2022-09-21T03:17:07.007Z,101026.19
2022-09-21T03:22:09.597Z,101016.44
2022-09-21T03:27:12.227Z,101026.38
2022-09-21T03:32:17.138Z,101023.66
2022-09-21T03:37:19.872Z,101027.34
2022-09-21T03:42:22.482Z,101025.59
2022-09-21T03:47:26.608Z,101023.94
2022-09-21T03:52:29.263Z,101030.31
2022-09-21T03:57:31.868Z,101028.56
2022-09-21T04:02:36.163Z,101038.66
2022-09-21T04:07:40.658Z,101040.69
2022-09-21T04:12:44.724Z,101040.81
2022-09-21T04:17:52.083Z,101041.81
2022-09-21T04:22:54.699Z,101044.50
2022-09-21T04:27:57.317Z,101050.97
2022-09-21T04:33:01.272Z,101055.47
2022-09-21T04:38:03.934Z,101051.13
2022-09-21T04:43:07.056Z,101047.56
2022-09-21T04:48:11.535Z,101055.81
2022-09-21T04:53:14.109Z,101055.81
2022-09-21T04:58:21.256Z,101064.09
2022-09-21T05:03:27.908Z,101064.19
2022-09-21T05:08:48.497Z,101065.13
2022-09-21T05:13:51.685Z,101066.19
2022-09-21T05:18:55.997Z,101075.34
2022-09-21T05:23:58.662Z,101080.72
2022-09-21T05:29:01.875Z,101085.22
2022-09-21T05:34:13.361Z,101083.59
2022-09-21T05:39:16.577Z,101089.84
2022-09-21T05:44:21.673Z,101094.38
2022-09-21T05:49:36.855Z,101098.03
2022-09-21T05:54:53.505Z,101095.25
2022-09-21T06:00:05.163Z,101100.72
2022-09-21T06:05:17.153Z,101104.28
2022-09-21T06:10:19.992Z,101105.25
2022-09-21T06:15:22.591Z,101121.31
2022-09-21T06:20:26.625Z,101108.81
2022-09-21T06:25:29.266Z,101108.81
2022-09-21T06:30:33.195Z,101113.25
2022-09-21T06:35:38.045Z,101116.91
2022-09-21T06:40:40.676Z,101119.59
2022-09-21T06:45:43.318Z,101130.53
2022-09-21T06:50:47.324Z,101131.25
2022-09-21T06:55:49.869Z,101128.66
2022-09-21T07:00:53.016Z,101130.47
2022-09-21T07:05:57.042Z,101133.94
2022-09-21T07:11:00.011Z,101138.47
2022-09-21T07:16:05.334Z,101141.94
2022-09-21T07:21:10.981Z,101148.28
2022-09-21T07:26:15.138Z,101152.69
2022-09-21T07:31:18.366Z,101158.19
2022-09-21T07:36:22.349Z,101157.22
2022-09-21T07:41:25.153Z,101157.22
2022-09-21T07:46:27.715Z,101156.38
2022-09-21T07:51:32.350Z,101162.53
2022-09-21T07:56:34.927Z,101162.53
2022-09-21T08:01:39.573Z,101151.75
2022-09-21T08:06:43.474Z,101162.53
2022-09-21T08:11:47.017Z,101156.19
2022-09-21T08:16:49.796Z,101158.91
2022-09-21T08:21:57.554Z,101172.38
2022-09-21T08:27:01.092Z,101175.84
2022-09-21T08:32:04.138Z,101172.19
2022-09-21T08:37:08.152Z,101176.59
2022-09-21T08:42:25.185Z,101186.53
2022-09-21T08:47:39.046Z,101183.84
2022-09-21T08:52:46.270Z,101190.56
2022-09-21T08:57:49.563Z,101192.84
2022-09-21T09:03:20.640Z,101198.75
2022-09-21T09:08:41.556Z,101200.41
2022-09-21T09:14:01.903Z,101196.56
2022-09-21T09:19:20.154Z,101197.81
2022-09-21T09:24:33.587Z,101193.66
2022-09-21T09:29:46.338Z,101182.94
2022-09-21T09:34:58.357Z,101173.63
2022-09-21T09:40:02.976Z,101166.56
2022-09-21T09:45:23.896Z,101160.50
2022-09-21T09:50:31.047Z,101165.31
2022-09-21T09:55:40.598Z,101161.25
2022-09-21T10:00:43.235Z,101156.19
2022-09-21T10:05:46.572Z,101161.16
2022-09-21T10:10:50.839Z,101158.16
2022-09-21T10:15:56.991Z,101156.00
2022-09-21T10:21:03.950Z,101166.34
2022-09-21T10:26:10.819Z,101161.66
2022-09-21T10:31:22.392Z,101155.94
2022-09-21T10:36:33.876Z,101147.47
2022-09-21T10:41:38.792Z,101145.31
2022-09-21T10:46:41.407Z,101149.47
2022-09-21T10:51:47.993Z,101147.25
2022-09-21T10:56:55.632Z,101145.22
2022-09-21T11:02:00.267Z,101140.38
2022-09-21T11:07:09.959Z,101132.53
2022-09-21T11:12:30.468Z,101135.41
2022-09-21T11:17:40.072Z,101138.13
2022-09-21T11:22:55.410Z,101130.22
2022-09-21T11:28:12.959Z,101129.13
2022-09-21T11:33:31.656Z,101129.34
2022-09-21T11:38:44.876Z,101125.25
2022-09-21T11:44:12.736Z,101123.94
2022-09-21T11:49:34.502Z,101121.31
2022-09-21T11:55:01.701Z,101115.22
2022-09-21T12:00:15.385Z,101110.97
2022-09-21T12:05:25.210Z,101103.84
2022-09-21T12:10:49.390Z,101098.38
2022-09-21T12:16:02.884Z,101097.16
2022-09-21T12:21:14.469Z,101093.22
2022-09-21T12:26:21.573Z,101093.75
2022-09-21T12:31:39.009Z,101093.38
2022-09-21T12:36:47.683Z,101082.34
2022-09-21T12:41:55.843Z,101085.53
2022-09-21T12:47:10.064Z,101075.31
2022-09-21T12:52:18.762Z,101077.66
2022-09-21T12:57:49.099Z,101073.44
2022-09-21T13:03:01.827Z,101068.31
2022-09-21T13:08:12.218Z,101073.06
2022-09-21T13:13:24.223Z,101063.44
2022-09-21T13:18:35.849Z,101060.66
2022-09-21T13:23:41.988Z,101055.94
2022-09-21T13:29:36.451Z,101055.91
2022-09-21T13:34:41.912Z,101048.00
2022-09-21T13:39:45.588Z,101049.81
2022-09-21T13:44:48.491Z,101041.88
2022-09-21T13:49:58.373Z,101048.38
2022-09-21T13:55:05.838Z,101035.25
2022-09-21T14:00:36.094Z,101033.53
2022-09-21T14:05:44.732Z,101031.88
2022-09-21T14:10:54.067Z,101026.69
2022-09-21T14:16:17.059Z,101017.50
2022-09-21T14:21:21.761Z,101025.31
2022-09-21T14:26:35.546Z,101021.06
2022-09-21T14:31:39.782Z,101012.84
2022-09-21T14:36:49.998Z,101013.06
2022-09-21T14:41:56.213Z,101011.06
2022-09-21T14:47:16.681Z,101009.97
2022-09-21T14:52:32.873Z,101001.31
2022-09-21T14:57:50.777Z,101005.13
2022-09-21T15:03:09.585Z,100998.84
2022-09-21T15:09:12.223Z,100995.69
2022-09-21T15:14:21.905Z,100999.72
2022-09-21T15:19:26.869Z,100991.91
2022-09-21T15:24:34.192Z,100989.75
2022-09-21T15:29:38.632Z,100988.59
2022-09-21T15:34:41.755Z,100983.06
2022-09-21T15:39:45.935Z,100985.03
2022-09-21T15:44:50.634Z,100985.59
2022-09-21T15:49:56.931Z,100981.38
2022-09-21T15:55:07.272Z,100992.09
2022-09-21T16:00:21.360Z,100979.88
2022-09-21T16:05:25.499Z,100993.09
2022-09-21T16:10:41.434Z,100992.03
2022-09-21T16:16:01.217Z,100989.97
2022-09-21T16:21:14.576Z,100988.13
2022-09-21T16:26:25.756Z,100998.84
2022-09-21T16:31:33.729Z,101003.31
2022-09-21T16:36:45.365Z,101004.47
2022-09-21T16:41:52.847Z,100999.94
2022-09-21T16:46:59.567Z,100996.25
2022-09-21T16:52:03.237Z,101000.69
2022-09-21T16:57:07.784Z,100998.97
2022-09-21T17:02:13.454Z,101002.06
2022-09-21T17:07:16.753Z,101006.44
2022-09-21T17:12:22.084Z,101012.03
2022-09-21T17:17:26.856Z,101000.53
2022-09-21T17:22:29.991Z,101003.91
2022-09-21T17:27:34.238Z,101002.19
2022-09-21T17:32:38.864Z,100999.19
2022-09-21T17:37:41.574Z,101008.25
2022-09-21T17:42:48.291Z,101005.47
2022-09-21T17:47:51.976Z,101007.84
2022-09-21T17:53:13.670Z,101014.34
2022-09-21T17:58:33.630Z,101015.84
2022-09-21T18:03:41.230Z,101021.03
2022-09-21T18:08:45.029Z,101022.69
2022-09-21T18:13:59.581Z,101033.69
2022-09-21T18:19:21.599Z,101031.78
2022-09-21T18:24:31.093Z,101030.13
2022-09-21T18:29:41.395Z,101032.72
2022-09-21T18:35:01.216Z,101032.97
2022-09-21T18:40:14.911Z,101040.09
2022-09-21T18:45:23.404Z,101033.06
2022-09-21T18:50:35.054Z,101039.44
2022-09-21T18:55:38.205Z,101038.25
2022-09-21T19:00:43.357Z,101039.03
2022-09-21T19:05:57.411Z,101046.16
2022-09-21T19:11:06.586Z,101044.31
2022-09-21T19:16:22.697Z,101046.91
2022-09-21T19:21:36.455Z,101057.00
2022-09-21T19:26:48.817Z,101051.59
2022-09-21T19:31:53.196Z,101052.44
2022-09-21T19:36:57.203Z,101051.59
2022-09-21T19:42:11.396Z,101038.78
2022-09-21T19:47:25.843Z,101037.72
2022-09-21T19:52:33.070Z,101049.50
2022-09-21T19:57:54.123Z,101044.97
2022-09-21T20:03:04.799Z,101044.22
2022-09-21T20:08:17.659Z,101045.19
2022-09-21T20:13:31.301Z,101044.88
2022-09-21T20:18:41.652Z,101036.63
2022-09-21T20:23:48.798Z,101033.19
2022-09-21T20:28:55.059Z,101030.47
2022-09-21T20:33:59.039Z,101039.91
2022-09-21T20:39:03.277Z,101031.66
2022-09-21T20:44:05.881Z,101026.91
2022-09-21T20:49:10.204Z,101034.66
2022-09-21T20:54:12.773Z,101033.94
2022-09-21T20:59:15.360Z,101034.66
2022-09-21T21:04:19.555Z,101027.53
2022-09-21T21:09:22.415Z,101026.13
2022-09-21T21:14:25.836Z,101033.63
2022-09-21T21:19:31.452Z,101036.72
2022-09-21T21:24:44.021Z,101035.84
2022-09-21T21:29:49.950Z,101026.88
2022-09-21T21:34:55.056Z,101035.13
2022-09-21T21:39:57.755Z,101037.16
2022-09-21T21:45:00.309Z,101025.56
2022-09-21T21:50:04.341Z,101033.00
2022-09-21T21:55:07.818Z,101029.44
2022-09-21T22:00:12.036Z,101033.22
2022-09-21T22:05:16.352Z,101034.28
2022-09-21T22:10:19.007Z,101032.88
2022-09-21T22:15:21.590Z,101028.56
2022-09-21T22:20:25.700Z,101028.75
2022-09-21T22:25:29.403Z,101031.81
2022-09-21T22:30:32.130Z,101032.31
2022-09-21T22:35:36.031Z,101035.31
2022-09-21T22:40:38.874Z,101035.75
2022-09-21T22:45:41.529Z,101037.81
2022-09-21T22:50:45.679Z,101032.72
2022-09-21T22:55:48.435Z,101024.91
2022-09-21T23:00:51.085Z,101019.91
2022-09-21T23:05:58.130Z,101012.09
2022-09-21T23:11:07.439Z,101018.00
2022-09-21T23:16:12.379Z,101019.16
2022-09-21T23:21:21.155Z,101017.63
2022-09-21T23:26:26.007Z,101013.50
2022-09-21T23:31:29.922Z,101010.16
2022-09-21T23:36:34.809Z,101013.03
2022-09-21T23:41:37.784Z,101010.56
2022-09-21T23:46:41.058Z,101007.28
2022-09-21T23:51:45.094Z,101012.00
2022-09-21T23:56:47.733Z,101016.75
